Time;durP1;ratioP1;P1;durP2;ratioP2;P2;SDS_P1;SDS_P2;PMS_P1;PMS_P2;Temp;Humidity;BMP_temperature;BMP_pressure;BME280_temperature;BME280_humidity;BME280_pressure;Samples;Min_cycle;Max_cycle;Signal;HPM_P1;HPM_P2
2024/04/10 00:00:12;;;;;;;;;;;;;;;13.07;100.00;101942.69;5373815;26;1902;-60
2024/04/10 00:02:37;;;;;;;;;;;;;;;13.08;100.00;101930.88;5392714;26;1579;-60
2024/04/10 00:05:03;;;;;;;;;;;;;;;13.04;100.00;101940.41;5400689;26;1382;-60
2024/04/10 00:07:28;;;;;;;;;;;;;;;13.02;100.00;101935.22;5393882;26;1297;-60
2024/04/10 00:09:54;;;;;;;;;;;;;;;13.04;100.00;101950.34;5392707;26;1387;-60
2024/04/10 00:12:19;;;;;;;;;;;;;;;13.02;100.00;101943.28;5403598;26;1284;-59
2024/04/10 00:14:44;;;;;;;;;;;;;;;12.97;100.00;101953.84;5404755;26;1809;-59
2024/04/10 00:17:09;;;;;;;;;;;;;;;12.95;100.00;101957.78;5407823;26;1394;-59
2024/04/10 00:19:35;;;;;;;;;;;;;;;12.98;100.00;101957.38;5406523;26;1830;-59
2024/04/10 00:22:00;;;;;;;;;;;;;;;12.99;100.00;101967.94;5406441;26;1228;-59
2024/04/10 00:24:25;;;;;;;;;;;;;;;13.03;100.00;101973.72;5405449;26;1510;-59
2024/04/10 00:26:51;;;;;;;;;;;;;;;12.97;100.00;101977.25;5389680;26;1243;-59
2024/04/10 00:29:16;;;;;;;;;;;;;;;12.86;100.00;101972.50;5406733;26;1347;-62
2024/04/10 00:31:42;;;;;;;;;;;;;;;12.93;100.00;101981.38;5398553;26;1315;-59
2024/04/10 00:34:07;;;;;;;;;;;;;;;12.91;100.00;101986.16;5403199;26;1886;-59
2024/04/10 00:36:32;;;;;;;;;;;;;;;12.93;100.00;101981.38;5394271;26;1794;-59
2024/04/10 00:38:57;;;;;;;;;;;;;;;12.85;100.00;101990.47;5414109;26;1333;-59
2024/04/10 00:41:23;;;;;;;;;;;;;;;12.89;100.00;101991.75;5393792;26;1882;-59
2024/04/10 00:43:48;;;;;;;;;;;;;;;12.87;100.00;101996.50;5416456;26;1205;-59
2024/04/10 00:46:14;;;;;;;;;;;;;;;12.80;100.00;101998.34;5394453;26;1303;-60
2024/04/10 00:48:39;;;;;;;;;;;;;;;12.83;100.00;102004.16;5400571;26;1317;-59
2024/04/10 00:51:06;;;;;;;;;;;;;;;12.80;100.00;102004.56;5397414;26;1386;-60
2024/04/10 00:53:32;;;;;;;;;;;;;;;12.81;100.00;102008.91;5370183;26;1324;-60
2024/04/10 00:55:57;;;;;;;;;;;;;;;12.80;100.00;102014.50;5399934;26;1209;-60
2024/04/10 00:58:22;;;;;;;;;;;;;;;12.77;100.00;102013.03;5406114;26;1154;-60
2024/04/10 01:00:53;;;;;;;;;;;;;;;12.77;100.00;102012.22;5406660;26;1857;-60
2024/04/10 01:03:18;;;;;;;;;;;;;;;12.74;100.00;102026.91;5404122;26;1297;-59
2024/04/10 01:05:43;;;;;;;;;;;;;;;12.74;100.00;102024.22;5432134;26;1373;-60
2024/04/10 01:08:09;;;;;;;;;;;;;;;12.76;100.00;102030.22;5399443;26;1510;-59
2024/04/10 01:10:34;;;;;;;;;;;;;;;12.75;100.00;102027.72;5407940;26;1278;-60
2024/04/10 01:13:00;;;;;;;;;;;;;;;12.71;100.00;102032.69;5410070;26;1329;-60
2024/04/10 01:15:25;;;;;;;;;;;;;;;12.68;100.00;102033.09;5368666;26;1409;-60
2024/04/10 01:17:51;;;;;;;;;;;;;;;12.69;100.00;102034.75;5394743;26;1246;-60
2024/04/10 01:20:16;;;;;;;;;;;;;;;12.71;100.00;102030.00;5386355;26;1826;-59
2024/04/10 01:22:41;;;;;;;;;;;;;;;12.66;100.00;102032.44;5403881;26;1288;-60
2024/04/10 01:25:07;;;;;;;;;;;;;;;12.71;100.00;102042.59;5407827;26;1383;-60
2024/04/10 01:27:33;;;;;;;;;;;;;;;12.69;100.00;102036.59;5401422;26;2001;-60
2024/04/10 01:29:58;;;;;;;;;;;;;;;12.66;100.00;102044.06;5412130;26;1474;-60
2024/04/10 01:32:23;;;;;;;;;;;;;;;12.64;100.00;102051.50;5345638;26;1310;-60
2024/04/10 01:34:49;;;;;;;;;;;;;;;12.62;100.00;102041.97;5381956;26;1396;-59
2024/04/10 01:37:14;;;;;;;;;;;;;;;12.61;100.00;102051.06;5389475;26;1355;-60
2024/04/10 01:39:39;;;;;;;;;;;;;;;12.63;100.00;102062.47;5389927;26;1874;-59
2024/04/10 01:42:05;;;;;;;;;;;;;;;12.58;100.00;102065.75;5405525;26;1583;-60
2024/04/10 01:44:30;;;;;;;;;;;;;;;12.58;100.00;102071.13;5405765;26;2594;-60
2024/04/10 01:46:55;;;;;;;;;;;;;;;12.60;100.00;102068.25;5407949;26;1281;-60
2024/04/10 01:49:21;;;;;;;;;;;;;;;12.60;100.00;102071.78;5407559;26;1401;-60
2024/04/10 01:51:46;;;;;;;;;;;;;;;12.59;100.00;102078.19;5404707;26;1560;-60
2024/04/10 01:54:13;;;;;;;;;;;;;;;12.54;100.00;102085.19;5394637;26;1451;-60
2024/04/10 01:56:38;;;;;;;;;;;;;;;12.55;100.00;102093.06;5402809;26;1425;-59
2024/04/10 01:59:03;;;;;;;;;;;;;;;12.56;100.00;102096.56;5403377;26;1342;-60
2024/04/10 02:01:29;;;;;;;;;;;;;;;12.56;100.00;102099.28;5406355;26;1825;-60
2024/04/10 02:03:54;;;;;;;;;;;;;;;12.58;100.00;102106.13;5408367;26;1349;-60
2024/04/10 02:06:19;;;;;;;;;;;;;;;12.57;100.00;102111.69;5409203;26;1194;-60
2024/04/10 02:08:45;;;;;;;;;;;;;;;12.56;100.00;102115.41;5402949;26;1210;-59
2024/04/10 02:13:54;;;;;;;;;;;;;;;12.54;100.00;102122.88;5410409;26;1190;-60
2024/04/10 02:16:21;;;;;;;;;;;;;;;12.56;100.00;102127.03;5409901;26;1274;-59
2024/04/10 02:18:46;;;;;;;;;;;;;;;12.54;100.00;102128.25;5408853;26;1218;-59
2024/04/10 02:21:12;;;;;;;;;;;;;;;12.53;100.00;102142.72;5398187;26;1870;-60
2024/04/10 02:23:37;;;;;;;;;;;;;;;12.59;100.00;102139.22;5406932;26;1222;-59
2024/04/10 02:26:10;;;;;;;;;;;;;;;12.54;100.00;102153.28;5394570;26;1085;-60
2024/04/10 02:28:35;;;;;;;;;;;;;;;12.55;100.00;102156.81;5394256;26;1179;-60
2024/04/10 02:31:00;;;;;;;;;;;;;;;12.59;100.00;102158.06;5407915;26;1313;-59
2024/04/10 02:33:26;;;;;;;;;;;;;;;12.55;100.00;102159.50;5396054;26;1166;-60
2024/04/10 02:35:51;;;;;;;;;;;;;;;12.55;100.00;102168.41;5400858;26;1294;-59
2024/04/10 02:38:16;;;;;;;;;;;;;;;12.55;100.00;102170.28;5401130;26;1293;-60
2024/04/10 02:40:42;;;;;;;;;;;;;;;12.58;100.00;102173.38;5405446;26;1829;-60
2024/04/10 02:43:07;;;;;;;;;;;;;;;12.54;100.00;102182.06;5395337;26;1253;-60
2024/04/10 02:45:32;;;;;;;;;;;;;;;12.54;100.00;102174.81;5390028;26;1290;-60
2024/04/10 02:47:57;;;;;;;;;;;;;;;12.54;100.00;102182.06;5425459;26;1266;-60
2024/04/10 02:50:23;;;;;;;;;;;;;;;12.52;100.00;102181.44;5405468;26;1317;-59
2024/04/10 02:52:48;;;;;;;;;;;;;;;12.54;100.00;102192.81;5391499;26;1123;-60
2024/04/10 02:55:13;;;;;;;;;;;;;;;12.55;100.00;102194.50;5391387;26;1800;-60
2024/04/10 02:57:39;;;;;;;;;;;;;;;12.51;100.00;102194.03;5411033;26;1340;-59
2024/04/10 03:00:04;;;;;;;;;;;;;;;12.48;100.00;102200.66;5408583;26;1870;-60
2024/04/10 03:02:32;;;;;;;;;;;;;;;12.45;100.00;102201.03;5388962;26;1166;-59
2024/04/10 03:04:58;;;;;;;;;;;;;;;12.48;100.00;102216.81;5403815;26;1123;-59
2024/04/10 03:07:23;;;;;;;;;;;;;;;12.50;100.00;102208.53;5399825;26;1188;-60
2024/04/10 03:09:49;;;;;;;;;;;;;;;12.43;100.00;102208.47;5403962;26;1179;-60
2024/04/10 03:12:15;;;;;;;;;;;;;;;12.48;100.00;102211.44;5406261;26;1296;-59
2024/04/10 03:14:42;;;;;;;;;;;;;;;12.51;100.00;102225.50;5410382;26;1201;-60
2024/04/10 03:17:08;;;;;;;;;;;;;;;12.43;100.00;102229.19;5418601;26;1298;-59
2024/04/10 03:19:33;;;;;;;;;;;;;;;12.46;100.00;102234.16;5420764;26;1860;-59
2024/04/10 03:21:59;;;;;;;;;;;;;;;12.45;100.00;102237.88;5407161;26;1338;-60
2024/04/10 03:24:24;;;;;;;;;;;;;;;12.44;100.00;102237.06;5398067;26;1338;-59
2024/04/10 03:26:49;;;;;;;;;;;;;;;12.45;100.00;102238.69;5410518;26;1410;-59
2024/04/10 03:29:14;;;;;;;;;;;;;;;12.43;100.00;102242.63;5389910;26;1110;-59
2024/04/10 03:31:40;;;;;;;;;;;;;;;12.43;100.00;102248.84;5409135;26;1252;-60
2024/04/10 03:34:05;;;;;;;;;;;;;;;12.47;100.00;102255.50;5409512;26;1261;-60
2024/04/10 03:36:30;;;;;;;;;;;;;;;12.43;100.00;102256.91;5405712;26;1189;-59
2024/04/10 03:38:55;;;;;;;;;;;;;;;12.42;100.00;102259.78;5419670;26;1352;-59
2024/04/10 03:41:21;;;;;;;;;;;;;;;12.39;100.00;102258.31;5398926;26;1874;-59
2024/04/10 03:45:18;;;;;;;;;;;;;;;12.41;100.00;102258.97;5522893;25;1409;-59
2024/04/10 03:47:43;;;;;;;;;;;;;;;12.38;100.00;102270.13;5506254;25;1554;-58
2024/04/10 03:50:08;;;;;;;;;;;;;;;12.36;100.00;102272.16;5506890;25;1325;-59
2024/04/10 03:52:34;;;;;;;;;;;;;;;12.34;100.00;102276.06;5465894;25;1242;-59
2024/04/10 03:54:59;;;;;;;;;;;;;;;12.38;100.00;102278.19;5482184;25;1289;-58
2024/04/10 03:57:27;;;;;;;;;;;;;;;12.36;100.00;102299.06;5468647;26;1361;-58
2024/04/10 03:59:52;;;;;;;;;;;;;;;12.36;100.00;102296.38;5468480;25;1408;-58
2024/04/10 04:02:18;;;;;;;;;;;;;;;12.38;100.00;102301.56;5498417;25;1203;-58
2024/04/10 04:04:43;;;;;;;;;;;;;;;12.41;100.00;102295.78;5464564;25;1874;-58
2024/04/10 04:07:08;;;;;;;;;;;;;;;12.38;100.00;102298.88;5497033;25;1310;-58
2024/04/10 04:09:34;;;;;;;;;;;;;;;12.36;100.00;102309.00;5516861;25;1181;-58
2024/04/10 04:11:59;;;;;;;;;;;;;;;12.37;100.00;102314.19;5505596;25;1168;-58
2024/04/10 04:14:24;;;;;;;;;;;;;;;12.40;100.00;102312.97;5485925;25;1165;-58
2024/04/10 04:16:50;;;;;;;;;;;;;;;12.32;100.00;102319.28;5487831;25;2495;-58
2024/04/10 04:19:15;;;;;;;;;;;;;;;12.33;100.00;102320.97;5480107;25;1986;-58
2024/04/10 04:21:40;;;;;;;;;;;;;;;12.37;100.00;102330.31;5486352;25;1346;-58
2024/04/10 04:24:06;;;;;;;;;;;;;;;12.35;100.00;102331.53;5491537;25;1828;-59
2024/04/10 04:26:31;;;;;;;;;;;;;;;12.31;100.00;102342.69;5495008;25;1249;-59
2024/04/10 04:28:56;;;;;;;;;;;;;;;12.31;100.00;102342.69;5493314;25;1200;-58
2024/04/10 04:31:22;;;;;;;;;;;;;;;12.31;100.00;102344.53;5498485;25;1101;-58
2024/04/10 04:33:47;;;;;;;;;;;;;;;12.36;100.00;102350.16;5498211;25;1147;-58
2024/04/10 04:36:13;;;;;;;;;;;;;;;12.32;100.00;102355.09;5504211;25;1243;-59
2024/04/10 04:38:38;;;;;;;;;;;;;;;12.31;100.00;102361.50;5491084;25;1432;-59
2024/04/10 04:41:05;;;;;;;;;;;;;;;12.32;100.00;102371.25;5492083;25;1280;-58
2024/04/10 04:43:30;;;;;;;;;;;;;;;12.32;100.00;102365.88;5492436;25;1844;-59
2024/04/10 04:45:55;;;;;;;;;;;;;;;12.35;100.00;102363.81;5493984;25;1130;-59
2024/04/10 04:48:20;;;;;;;;;;;;;;;12.34;100.00;102381.81;5491575;25;1569;-59
2024/04/10 04:50:47;;;;;;;;;;;;;;;12.27;100.00;102384.41;5495747;25;1344;-58
2024/04/10 04:53:12;;;;;;;;;;;;;;;12.35;100.00;102396.94;5490255;25;1589;-59
2024/04/10 04:55:38;;;;;;;;;;;;;;;12.26;100.00;102392.69;5471551;25;1275;-59
2024/04/10 04:58:04;;;;;;;;;;;;;;;12.28;100.00;102386.09;5477762;26;1344;-59
2024/04/10 05:00:29;;;;;;;;;;;;;;;12.28;100.00;102399.56;5483234;26;1231;-59
2024/04/10 05:02:55;;;;;;;;;;;;;;;12.25;100.00;102401.78;5478205;26;1871;-59
2024/04/10 05:05:21;;;;;;;;;;;;;;;12.26;100.00;102408.81;5463365;26;1324;-59
2024/04/10 05:07:47;;;;;;;;;;;;;;;12.27;100.00;102408.63;5480744;26;1323;-59
2024/04/10 05:10:13;;;;;;;;;;;;;;;12.23;100.00;102420.81;5474833;26;1266;-59
2024/04/10 05:12:40;;;;;;;;;;;;;;;12.23;100.00;102422.66;5438309;26;1257;-59
2024/04/10 05:15:06;;;;;;;;;;;;;;;12.26;100.00;102422.28;5480939;26;1357;-59
2024/04/10 05:17:31;;;;;;;;;;;;;;;12.27;100.00;102421.25;5433782;26;1445;-59
2024/04/10 05:19:57;;;;;;;;;;;;;;;12.25;100.00;102426.00;5480566;26;1100;-59
2024/04/10 05:22:22;;;;;;;;;;;;;;;12.22;100.00;102431.75;5451199;26;1311;-59
2024/04/10 05:24:48;;;;;;;;;;;;;;;12.24;100.00;102440.47;5477876;26;1837;-59
2024/04/10 05:27:23;;;;;;;;;;;;;;;12.23;100.00;102445.03;5477833;26;1325;-60
2024/04/10 05:29:56;;;;;;;;;;;;;;;12.24;100.00;102446.66;5471931;26;1228;-59
2024/04/10 05:32:21;;;;;;;;;;;;;;;12.22;100.00;102455.97;5437074;26;1628;-60
2024/04/10 05:34:46;;;;;;;;;;;;;;;12.24;100.00;102456.59;5480417;26;1638;-59
2024/04/10 05:37:12;;;;;;;;;;;;;;;12.22;100.00;102456.78;5455657;26;1325;-60
2024/04/10 05:39:37;;;;;;;;;;;;;;;12.25;100.00;102469.88;5474938;26;1226;-60
2024/04/10 05:42:06;;;;;;;;;;;;;;;12.27;100.00;102472.38;5482325;26;1427;-60
2024/04/10 05:44:32;;;;;;;;;;;;;;;12.29;100.00;102478.38;5469822;26;1847;-60
2024/04/10 05:46:57;;;;;;;;;;;;;;;12.32;100.00;102486.06;5496900;26;1345;-60
2024/04/10 05:49:23;;;;;;;;;;;;;;;12.30;100.00;102491.63;5465644;26;1323;-59
2024/04/10 05:51:48;;;;;;;;;;;;;;;12.32;100.00;102496.81;5470113;26;1283;-59
2024/04/10 05:54:14;;;;;;;;;;;;;;;12.34;100.00;102494.81;5462377;26;1448;-58
2024/04/10 05:56:39;;;;;;;;;;;;;;;12.33;100.00;102506.56;5484763;26;1435;-59
2024/04/10 05:59:05;;;;;;;;;;;;;;;12.28;100.00;102503.63;5483461;26;1276;-58
2024/04/10 06:01:30;;;;;;;;;;;;;;;12.35;100.00;102509.06;5480326;26;1254;-58
2024/04/10 06:03:56;;;;;;;;;;;;;;;12.35;100.00;102515.31;5481366;26;1828;-58
2024/04/10 06:06:21;;;;;;;;;;;;;;;12.37;100.00;102515.13;5469422;26;1542;-58
2024/04/10 06:08:47;;;;;;;;;;;;;;;12.36;100.00;102525.03;5483736;26;1185;-59
2024/04/10 06:11:12;;;;;;;;;;;;;;;12.43;100.00;102530.50;5482475;26;1316;-58
2024/04/10 06:13:37;;;;;;;;;;;;;;;12.39;100.00;102537.28;5480283;26;1342;-59
2024/04/10 06:16:03;;;;;;;;;;;;;;;12.39;100.00;102540.78;5480131;26;1283;-59
2024/04/10 06:18:28;;;;;;;;;;;;;;;12.40;100.00;102542.47;5487392;26;1456;-59
2024/04/10 06:20:57;;;;;;;;;;;;;;;12.45;100.00;102548.09;5477730;26;1235;-59
2024/04/10 06:23:24;;;;;;;;;;;;;;;12.40;100.00;102550.53;5420992;26;1861;-59
2024/04/10 06:25:52;;;;;;;;;;;;;;;12.47;100.00;102558.72;5482858;26;1412;-59
2024/04/10 06:28:17;;;;;;;;;;;;;;;12.50;100.00;102571.78;5475102;26;1268;-59
2024/04/10 06:30:43;;;;;;;;;;;;;;;12.46;100.00;102565.94;5450520;26;1440;-59
2024/04/10 06:33:08;;;;;;;;;;;;;;;12.46;100.00;102571.31;5481095;26;2182;-59
2024/04/10 06:35:34;;;;;;;;;;;;;;;12.48;100.00;102571.97;5465332;26;1369;-59
2024/04/10 06:37:59;;;;;;;;;;;;;;;12.46;100.00;102576.69;5489252;25;1241;-59
2024/04/10 06:40:24;;;;;;;;;;;;;;;12.51;100.00;102592.28;5478240;26;1559;-59
2024/04/10 06:42:50;;;;;;;;;;;;;;;12.50;100.00;102593.31;5467602;26;1308;-59
2024/04/10 06:45:15;;;;;;;;;;;;;;;12.48;100.00;102596.19;5475616;26;1840;-59
2024/04/10 06:47:41;;;;;;;;;;;;;;;12.51;100.00;102602.22;5478329;26;1578;-59
2024/04/10 06:50:06;;;;;;;;;;;;;;;12.49;100.00;102600.53;5478289;26;1479;-59
2024/04/10 06:52:31;;;;;;;;;;;;;;;12.52;100.00;102604.72;5475100;26;1321;-59
2024/04/10 06:54:56;;;;;;;;;;;;;;;12.54;100.00;102612.59;5479324;26;1871;-59
2024/04/10 06:57:22;;;;;;;;;;;;;;;12.57;100.00;102604.16;5474204;26;1718;-59
2024/04/10 06:59:47;;;;;;;;;;;;;;;12.52;100.00;102606.59;5476174;26;1877;-59
2024/04/10 07:02:12;;;;;;;;;;;;;;;12.58;100.00;102611.22;5471875;26;1407;-59
2024/04/10 07:04:38;;;;;;;;;;;;;;;12.53;100.00;102619.00;5443977;26;1832;-59
2024/04/10 07:07:03;;;;;;;;;;;;;;;12.56;100.00;102616.78;5479535;26;1444;-59
2024/04/10 07:09:28;;;;;;;;;;;;;;;12.53;100.00;102617.16;5480086;26;1454;-59
2024/04/10 07:11:54;;;;;;;;;;;;;;;12.54;100.00;102618.81;5479467;26;1450;-59
2024/04/10 07:14:19;;;;;;;;;;;;;;;12.58;100.00;102621.97;5477204;26;1369;-59
2024/04/10 07:16:44;;;;;;;;;;;;;;;12.66;100.00;102622.72;5478921;26;1393;-59
2024/04/10 07:19:10;;;;;;;;;;;;;;;12.79;100.00;102624.72;5440544;26;1408;-59
2024/04/10 07:21:35;;;;;;;;;;;;;;;12.85;100.00;102628.53;5480596;26;1381;-59
2024/04/10 07:24:02;;;;;;;;;;;;;;;12.88;100.00;102638.09;5477718;26;1836;-59
2024/04/10 07:26:27;;;;;;;;;;;;;;;12.87;100.00;102644.50;5480907;26;1508;-59
2024/04/10 07:28:53;;;;;;;;;;;;;;;12.86;100.00;102634.78;5476872;26;1503;-59
2024/04/10 07:31:22;;;;;;;;;;;;;;;12.92;100.00;102640.22;5445503;26;1369;-59
2024/04/10 07:33:50;;;;;;;;;;;;;;;12.95;100.00;102647.91;5481186;26;1560;-59
2024/04/10 07:36:17;;;;;;;;;;;;;;;12.98;100.00;102644.03;5445619;26;1321;-59
2024/04/10 07:38:43;;;;;;;;;;;;;;;12.99;100.00;102638.44;5476358;26;1445;-59
2024/04/10 07:41:08;;;;;;;;;;;;;;;13.07;100.00;102640.19;5442131;26;1328;-59
2024/04/10 07:43:34;;;;;;;;;;;;;;;13.06;100.00;102646.59;5465049;26;1825;-59
2024/04/10 07:46:09;;;;;;;;;;;;;;;13.09;100.00;102643.50;5453065;26;1502;-59
2024/04/10 07:48:34;;;;;;;;;;;;;;;13.16;100.00;102643.59;5475044;26;1365;-59
2024/04/10 07:51:04;;;;;;;;;;;;;;;13.23;100.00;102651.75;5462630;26;1578;-59
2024/04/10 07:53:29;;;;;;;;;;;;;;;13.28;100.00;102652.84;5465771;26;1654;-59
2024/04/10 07:55:54;;;;;;;;;;;;;;;13.32;100.00;102658.69;5484146;26;1620;-59
2024/04/10 07:58:20;;;;;;;;;;;;;;;13.36;100.00;102657.31;5480829;26;1165;-59
2024/04/10 08:00:45;;;;;;;;;;;;;;;13.43;100.00;102665.47;5472513;26;1891;-59
2024/04/10 08:03:10;;;;;;;;;;;;;;;13.51;100.00;102668.88;5478555;26;1883;-59
2024/04/10 08:05:35;;;;;;;;;;;;;;;13.47;100.00;102667.59;5409631;26;1628;-59
2024/04/10 08:08:01;;;;;;;;;;;;;;;13.54;100.00;102675.75;5472571;26;1445;-59
2024/04/10 08:10:26;;;;;;;;;;;;;;;13.56;100.00;102670.19;5478872;26;1294;-59
2024/04/10 08:12:54;;;;;;;;;;;;;;;13.57;100.00;102666.44;5478023;26;1260;-59
2024/04/10 08:15:21;;;;;;;;;;;;;;;13.58;100.00;102679.72;5479045;26;1257;-59
2024/04/10 08:17:46;;;;;;;;;;;;;;;13.58;100.00;102685.09;5470079;26;1226;-59
2024/04/10 08:20:11;;;;;;;;;;;;;;;13.53;100.00;102679.47;5474116;26;1282;-59
2024/04/10 08:22:37;;;;;;;;;;;;;;;13.45;100.00;102683.13;5480905;26;1292;-59
2024/04/10 08:25:03;;;;;;;;;;;;;;;13.45;100.00;102680.44;5469106;26;1841;-59
2024/04/10 08:27:28;;;;;;;;;;;;;;;13.43;100.00;102682.47;5468363;26;1318;-59
2024/04/10 08:29:53;;;;;;;;;;;;;;;13.45;100.00;102691.22;5474074;26;1307;-59
2024/04/10 08:32:19;;;;;;;;;;;;;;;13.49;100.00;102692.47;5493346;26;1217;-58
2024/04/10 08:34:44;;;;;;;;;;;;;;;13.53;100.00;102699.16;5483171;26;1283;-59
2024/04/10 08:37:09;;;;;;;;;;;;;;;13.57;100.00;102704.16;5464701;26;1187;-59
2024/04/10 08:39:34;;;;;;;;;;;;;;;13.58;100.00;102711.25;5483503;26;1268;-59
2024/04/10 08:42:00;;;;;;;;;;;;;;;13.58;100.00;102717.44;5492683;26;1306;-59
2024/04/10 08:44:26;;;;;;;;;;;;;;;13.59;100.00;102726.41;5472606;26;1833;-59
2024/04/10 08:46:52;;;;;;;;;;;;;;;13.65;100.00;102726.44;5480804;26;2136;-59
2024/04/10 08:49:18;;;;;;;;;;;;;;;13.67;100.00;102720.88;5481200;26;1310;-59
2024/04/10 08:51:43;;;;;;;;;;;;;;;13.66;100.00;102741.59;5476068;26;1344;-59
2024/04/10 08:54:08;;;;;;;;;;;;;;;13.66;100.00;102732.69;5478173;26;1579;-59
2024/04/10 08:56:33;;;;;;;;;;;;;;;13.66;100.00;102738.91;5437528;26;1448;-59
2024/04/10 08:58:59;;;;;;;;;;;;;;;13.67;100.00;102745.13;5425396;26;1474;-59
2024/04/10 09:01:27;;;;;;;;;;;;;;;13.67;100.00;102745.97;5473215;26;2012;-59
2024/04/10 09:03:53;;;;;;;;;;;;;;;13.70;100.00;102740.22;5439486;26;1829;-59
2024/04/10 09:06:18;;;;;;;;;;;;;;;13.72;100.00;102743.53;5418778;26;1372;-60
2024/04/10 09:08:44;;;;;;;;;;;;;;;13.71;100.00;102743.72;5480683;26;1416;-59
2024/04/10 09:11:09;;;;;;;;;;;;;;;13.79;100.00;102743.63;5446252;26;1611;-59
2024/04/10 09:13:34;;;;;;;;;;;;;;;13.82;100.00;102747.78;5478748;26;1459;-59
2024/04/10 09:16:00;;;;;;;;;;;;;;;13.87;100.00;102753.44;5479452;26;1571;-59
2024/04/10 09:18:26;;;;;;;;;;;;;;;13.92;100.00;102756.38;5477563;26;1400;-59
2024/04/10 09:21:02;;;;;;;;;;;;;;;13.92;100.00;102756.38;5482845;26;1388;-59
2024/04/10 09:23:28;;;;;;;;;;;;;;;13.92;100.00;102760.94;5483411;26;1830;-59
2024/04/10 09:25:53;;;;;;;;;;;;;;;13.90;100.00;102761.16;5482338;26;1501;-60
2024/04/10 09:28:18;;;;;;;;;;;;;;;13.95;100.00;102761.38;5476401;26;1444;-59
2024/04/10 09:30:43;;;;;;;;;;;;;;;13.98;100.00;102758.31;5480280;26;1446;-59
2024/04/10 09:33:09;;;;;;;;;;;;;;;14.03;100.00;102757.75;5481622;26;1368;-59
2024/04/10 09:35:34;;;;;;;;;;;;;;;14.01;100.00;102766.03;5481689;26;1450;-59
2024/04/10 09:38:00;;;;;;;;;;;;;;;14.09;100.00;102762.38;5460733;26;1266;-60
2024/04/10 09:40:26;;;;;;;;;;;;;;;14.12;100.00;102772.78;5448307;26;1441;-59
2024/04/10 09:42:53;;;;;;;;;;;;;;;14.14;100.00;102772.56;5471799;26;1526;-60
2024/04/10 09:45:21;;;;;;;;;;;;;;;14.17;100.00;102777.56;5479976;26;1857;-59
2024/04/10 09:47:47;;;;;;;;;;;;;;;14.25;100.00;102778.28;5477322;26;1261;-60
2024/04/10 09:50:19;;;;;;;;;;;;;;;14.19;100.00;102779.06;5451091;26;1497;-59
2024/04/10 09:52:45;;;;;;;;;;;;;;;14.28;100.00;102782.47;5480722;26;1385;-59
2024/04/10 09:55:11;;;;;;;;;;;;;;;14.33;100.00;102789.97;5446773;26;1387;-61
2024/04/10 09:57:37;;;;;;;;;;;;;;;14.38;100.00;102784.81;5478531;26;1381;-59
2024/04/10 10:00:02;;;;;;;;;;;;;;;14.40;100.00;102774.69;5475652;26;1862;-59
2024/04/10 10:02:31;;;;;;;;;;;;;;;14.37;100.00;102785.84;5473776;26;1359;-59
2024/04/10 10:04:57;;;;;;;;;;;;;;;14.34;100.00;102776.28;5442716;26;1838;-59
2024/04/10 10:07:22;;;;;;;;;;;;;;;14.31;100.00;102771.28;5470181;26;1399;-60
2024/04/10 10:09:48;;;;;;;;;;;;;;;14.30;100.00;102772.28;5437153;26;1944;-60
2024/04/10 10:12:23;;;;;;;;;;;;;;;14.37;100.00;102772.34;5480237;26;1247;-60
2024/04/10 10:14:48;;;;;;;;;;;;;;;14.46;100.00;102771.19;5448736;26;1459;-60
2024/04/10 10:17:13;;;;;;;;;;;;;;;14.52;100.00;102774.94;5483338;26;1141;-60
2024/04/10 10:19:39;;;;;;;;;;;;;;;14.52;100.00;102781.19;5479329;26;1822;-60
2024/04/10 10:22:05;;;;;;;;;;;;;;;14.54;100.00;102786.41;5454463;26;1356;-60
2024/04/10 10:24:30;;;;;;;;;;;;;;;14.57;100.00;102784.13;5480200;26;1840;-60
2024/04/10 10:27:01;;;;;;;;;;;;;;;14.64;100.00;102783.38;5475472;26;1180;-60
2024/04/10 10:29:27;;;;;;;;;;;;;;;14.64;100.00;102800.44;5482928;26;1303;-60
2024/04/10 10:32:02;;;;;;;;;;;;;;;14.62;100.00;102790.84;5485048;26;1224;-60
2024/04/10 10:34:27;;;;;;;;;;;;;;;14.58;100.00;102788.50;5403741;26;1285;-60
2024/04/10 10:36:53;;;;;;;;;;;;;;;14.48;100.00;102787.19;5480568;26;1474;-60
2024/04/10 10:39:18;;;;;;;;;;;;;;;14.37;100.00;102808.28;5476076;26;1462;-60
2024/04/10 10:41:43;;;;;;;;;;;;;;;14.37;100.00;102804.72;5471890;26;1985;-60
2024/04/10 10:44:09;;;;;;;;;;;;;;;14.35;100.00;102801.41;5458529;26;1868;-60
2024/04/10 10:46:34;;;;;;;;;;;;;;;14.39;100.00;102795.41;5476169;26;1470;-60
2024/04/10 10:49:00;;;;;;;;;;;;;;;14.42;100.00;102796.91;5477825;26;1459;-60
2024/04/10 10:51:25;;;;;;;;;;;;;;;14.42;100.00;102796.91;5474062;26;1715;-60
2024/04/10 10:53:51;;;;;;;;;;;;;;;14.36;100.00;102794.97;5478167;26;1534;-60
2024/04/10 10:56:25;;;;;;;;;;;;;;;14.35;100.00;102806.78;5475368;26;1478;-60
2024/04/10 10:58:51;;;;;;;;;;;;;;;14.41;100.00;102803.31;5466092;26;1361;-60
2024/04/10 11:01:16;;;;;;;;;;;;;;;14.38;100.00;102801.00;5449142;26;2020;-60
2024/04/10 11:03:42;;;;;;;;;;;;;;;14.39;100.00;102806.22;5478943;26;1867;-60
2024/04/10 11:06:12;;;;;;;;;;;;;;;14.46;100.00;102806.28;5446108;26;1418;-60
2024/04/10 11:08:37;;;;;;;;;;;;;;;14.48;100.00;102804.22;5477269;26;1392;-60
2024/04/10 11:11:04;;;;;;;;;;;;;;;14.61;100.00;102800.81;5449085;26;1356;-60
2024/04/10 11:13:29;;;;;;;;;;;;;;;14.58;100.00;102807.41;5448538;26;1509;-59
2024/04/10 11:15:57;;;;;;;;;;;;;;;14.59;100.00;102819.88;5478389;26;1500;-60
2024/04/10 11:18:23;;;;;;;;;;;;;;;14.54;100.00;102818.78;5478942;26;1456;-59
2024/04/10 11:20:49;;;;;;;;;;;;;;;14.48;100.00;102806.91;5478795;26;1384;-60
2024/04/10 11:23:14;;;;;;;;;;;;;;;14.44;100.00;102805.63;5447285;26;1836;-59
2024/04/10 11:25:40;;;;;;;;;;;;;;;14.52;100.00;102805.50;5487193;26;1283;-60
2024/04/10 11:28:07;;;;;;;;;;;;;;;14.60;100.00;102805.34;5479542;26;1277;-60
2024/04/10 11:30:32;;;;;;;;;;;;;;;14.67;100.00;102815.41;5479565;26;1304;-60
2024/04/10 11:32:57;;;;;;;;;;;;;;;14.64;100.00;102808.53;5483587;26;1231;-60
2024/04/10 11:35:23;;;;;;;;;;;;;;;14.66;100.00;102805.63;5479751;26;1514;-60
2024/04/10 11:37:48;;;;;;;;;;;;;;;14.73;100.00;102817.31;5473362;26;1814;-60
2024/04/10 11:40:14;;;;;;;;;;;;;;;14.74;100.00;102819.81;5478516;26;1336;-60
2024/04/10 11:42:39;;;;;;;;;;;;;;;14.71;100.00;102822.91;5441936;26;2584;-60
2024/04/10 11:45:08;;;;;;;;;;;;;;;14.68;100.00;102817.91;5473129;26;1869;-60
2024/04/10 11:47:36;;;;;;;;;;;;;;;14.70;100.00;102817.72;5472271;26;1417;-61
2024/04/10 11:50:04;;;;;;;;;;;;;;;14.72;100.00;102826.44;5479096;26;1605;-60
2024/04/10 11:52:33;;;;;;;;;;;;;;;14.73;100.00;102820.84;5475429;26;1455;-61
2024/04/10 11:54:59;;;;;;;;;;;;;;;14.74;100.00;102822.53;5479510;26;1451;-60
2024/04/10 11:57:25;;;;;;;;;;;;;;;14.75;100.00;102826.03;5443899;26;1709;-61
2024/04/10 11:59:50;;;;;;;;;;;;;;;14.78;100.00;102825.66;5474533;26;1930;-60
2024/04/10 12:02:15;;;;;;;;;;;;;;;14.80;100.00;102822.75;5476601;26;1642;-61
2024/04/10 12:04:43;;;;;;;;;;;;;;;14.80;100.00;102811.94;5448861;26;1825;-60
2024/04/10 12:07:09;;;;;;;;;;;;;;;14.79;100.00;102826.50;5483028;26;1218;-61
2024/04/10 12:09:37;;;;;;;;;;;;;;;14.81;100.00;102824.44;5464698;26;1433;-60
2024/04/10 12:12:02;;;;;;;;;;;;;;;14.83;100.00;102828.63;5477131;26;1558;-61
2024/04/10 12:14:28;;;;;;;;;;;;;;;14.80;100.00;102829.00;5482289;26;1341;-60
2024/04/10 12:16:53;;;;;;;;;;;;;;;14.81;100.00;102822.56;5480182;26;1289;-60
2024/04/10 12:19:18;;;;;;;;;;;;;;;14.87;100.00;102826.34;5484864;26;1244;-60
2024/04/10 12:21:43;;;;;;;;;;;;;;;14.87;100.00;102827.16;5480466;26;1301;-60
2024/04/10 12:24:09;;;;;;;;;;;;;;;14.80;100.00;102820.06;5483652;26;1845;-60
2024/04/10 12:26:34;;;;;;;;;;;;;;;14.91;100.00;102830.31;5479432;26;1648;-60
2024/04/10 12:29:00;;;;;;;;;;;;;;;14.88;100.00;102830.72;5475519;26;1265;-61
2024/04/10 12:31:25;;;;;;;;;;;;;;;14.88;100.00;102828.84;5480861;26;1297;-60